logo
Rechercher aéroport 
image banner adimage banner adimage banner ad
image banner ad

39CA - Sce Palm Springs District

Situé à Cathedral City, United States

ICAO - 39CA, IATA -

Données fournies par Airmate  

Information générale

Coordonnées: N33°47'12" W116°27'52"
Élévation : 300 feet MSL.
Variation magnétique : 14° East
Voir autres Aéroports à California

Données opérationnelles

Special qualification required
Heure actuelle UTC:
Heure actuelle locale:
Météo à : KPSP - Palm Springs Intl ( 6 km )
METAR: KPSP 120053Z 36006KT 10SM CLR 31/18 A2992 RMK AO2 SLP127 T03110178
TAF: KPSP 102335Z 1100/1124 VRB04KT P6SM VCSH FEW050 SCT120 FM111800 11007KT P6SM SCT080
Voir NOTAMs / SUP AIP / TFR affectant cet aéroport [VIEW]
Fréquences de communication: [VIEW]

Pistes:

Coordonnées de l'aéroport

Adresse: Cathedral City United States

Vue satellite de 39CA